createdAt,value
2022-11-21T00:01:22.978Z,46.72
2022-11-21T00:03:50.485Z,46.55
2022-11-21T00:06:18.709Z,47.11
2022-11-21T00:08:47.063Z,47.03
2022-11-21T00:11:14.781Z,47.77
2022-11-21T00:13:42.909Z,48.01
2022-11-21T00:16:13.147Z,48.16
2022-11-21T00:18:40.866Z,47.65
2022-11-21T00:21:14.462Z,47.19
2022-11-21T00:23:42.941Z,47.63
2022-11-21T00:26:12.490Z,46.89
2022-11-21T00:28:39.965Z,47.84
2022-11-21T00:31:07.351Z,48.35
2022-11-21T00:33:39.342Z,49.08
2022-11-21T00:36:10.702Z,48.34
2022-11-21T00:38:38.413Z,48.21
2022-11-21T00:41:06.812Z,48.06
2022-11-21T00:43:34.517Z,48.22
2022-11-21T00:46:03.311Z,47.66
2022-11-21T00:48:31.942Z,48.28
2022-11-21T00:51:00.954Z,48.62
2022-11-21T00:53:29.486Z,47.51
2022-11-21T00:55:56.966Z,48.33
2022-11-21T00:58:24.438Z,48.21
2022-11-21T01:00:51.884Z,47.35
2022-11-21T01:03:19.710Z,47.10
2022-11-21T01:05:47.272Z,47.89
2022-11-21T01:08:14.645Z,47.84
2022-11-21T01:10:42.073Z,47.95
2022-11-21T01:13:09.457Z,48.14
2022-11-21T01:15:36.866Z,48.73
2022-11-21T01:18:04.376Z,47.68
2022-11-21T01:20:31.799Z,47.51
2022-11-21T01:22:59.383Z,47.62
2022-11-21T01:25:26.888Z,47.09
2022-11-21T01:27:54.412Z,46.92
2022-11-21T01:30:21.860Z,46.27
2022-11-21T01:32:50.325Z,45.58
2022-11-21T01:35:18.335Z,46.32
2022-11-21T01:37:49.987Z,46.89
2022-11-21T01:40:17.497Z,45.36
2022-11-21T01:42:54.717Z,46.46
2022-11-21T01:45:53.030Z,47.00
2022-11-21T01:48:28.284Z,45.73
2022-11-21T01:50:58.629Z,45.95
2022-11-21T01:53:26.446Z,45.29
2022-11-21T01:55:54.393Z,45.38
2022-11-21T01:58:22.997Z,46.04
2022-11-21T02:00:51.062Z,46.18
2022-11-21T02:03:25.503Z,46.12
2022-11-21T02:05:55.411Z,45.24
2022-11-21T02:08:24.996Z,45.68
2022-11-21T02:11:10.512Z,47.02
2022-11-21T02:13:38.725Z,46.32
2022-11-21T02:16:07.522Z,45.76
2022-11-21T02:18:35.088Z,45.81
2022-11-21T02:21:22.024Z,46.68
2022-11-21T02:24:07.985Z,46.73
2022-11-21T02:26:36.103Z,45.86
2022-11-21T02:29:03.640Z,45.34
2022-11-21T02:31:31.050Z,45.78
2022-11-21T02:33:58.576Z,45.24
2022-11-21T02:36:45.845Z,46.78
2022-11-21T02:39:34.287Z,46.13
2022-11-21T02:42:02.557Z,45.45
2022-11-21T02:44:38.894Z,45.77
2022-11-21T02:47:06.313Z,46.38
2022-11-21T02:49:57.088Z,45.96
2022-11-21T02:52:24.537Z,45.78
2022-11-21T02:54:51.892Z,45.55
2022-11-21T02:57:19.406Z,45.71
2022-11-21T02:59:46.797Z,45.12
2022-11-21T03:02:14.218Z,45.26
2022-11-21T03:04:41.575Z,44.15
2022-11-21T03:07:09.069Z,44.44
2022-11-21T03:09:36.485Z,44.65
2022-11-21T03:12:09.953Z,45.15
2022-11-21T03:14:37.879Z,45.53
2022-11-21T03:17:05.443Z,46.13
2022-11-21T03:19:32.819Z,45.57
2022-11-21T03:22:00.287Z,46.65
2022-11-21T03:24:27.952Z,46.12
2022-11-21T03:26:55.631Z,45.49
2022-11-21T03:29:23.045Z,46.17
2022-11-21T03:31:50.486Z,46.15
2022-11-21T03:34:17.895Z,45.91
2022-11-21T03:36:45.299Z,46.86
2022-11-21T03:39:12.789Z,46.84
2022-11-21T03:41:40.188Z,47.84
2022-11-21T03:44:10.700Z,47.76
2022-11-21T03:46:43.997Z,48.16
2022-11-21T03:49:11.663Z,48.36
2022-11-21T03:51:40.042Z,47.83
2022-11-21T03:54:07.801Z,47.04
2022-11-21T03:56:35.883Z,47.58
2022-11-21T03:59:03.939Z,47.83
2022-11-21T04:01:36.233Z,47.92
2022-11-21T04:04:04.681Z,49.08
2022-11-21T04:06:32.509Z,49.10
2022-11-21T04:08:59.986Z,49.77
2022-11-21T04:11:27.379Z,50.73
2022-11-21T04:13:54.805Z,50.26
2022-11-21T04:16:22.271Z,51.12
2022-11-21T04:18:49.685Z,51.64
2022-11-21T04:21:17.144Z,51.37
2022-11-21T04:23:44.580Z,52.59
2022-11-21T04:26:12.005Z,51.95
2022-11-21T04:28:39.563Z,51.17
2022-11-21T04:31:10.806Z,50.32
2022-11-21T04:33:39.828Z,49.00
2022-11-21T04:36:08.545Z,50.18
2022-11-21T04:38:36.753Z,49.43
2022-11-21T04:41:05.078Z,49.48
2022-11-21T04:43:32.777Z,46.77
2022-11-21T04:46:00.246Z,46.99
2022-11-21T04:48:27.696Z,45.01
2022-11-21T04:50:55.166Z,46.23
2022-11-21T04:53:22.501Z,44.72
2022-11-21T04:55:49.897Z,43.69
2022-11-21T04:58:17.353Z,42.72
2022-11-21T05:00:44.690Z,40.83
2022-11-21T05:03:12.216Z,39.81
2022-11-21T05:05:39.656Z,39.34
2022-11-21T05:08:06.950Z,37.63
2022-11-21T05:10:54.529Z,38.44
2022-11-21T05:13:21.997Z,37.27
2022-11-21T05:15:52.642Z,35.72
2022-11-21T05:18:20.239Z,35.92
2022-11-21T05:20:47.565Z,34.56
2022-11-21T05:23:14.940Z,34.76
2022-11-21T05:25:42.284Z,34.08
2022-11-21T05:28:09.859Z,33.39
2022-11-21T05:30:38.013Z,31.98
2022-11-21T05:33:05.639Z,30.97
2022-11-21T05:35:33.018Z,31.53
2022-11-21T05:38:00.542Z,31.65
2022-11-21T05:40:27.922Z,31.68
2022-11-21T05:43:13.596Z,32.38
2022-11-21T05:45:41.032Z,31.93
2022-11-21T05:48:08.504Z,30.70
2022-11-21T05:50:36.978Z,31.04
2022-11-21T05:53:05.441Z,28.67
2022-11-21T05:55:35.068Z,28.16
2022-11-21T05:58:02.931Z,29.87
2022-11-21T06:00:30.449Z,29.89
2022-11-21T06:03:16.300Z,28.33
2022-11-21T06:05:43.907Z,26.58
2022-11-21T06:08:11.358Z,27.07
2022-11-21T06:10:41.629Z,27.11
2022-11-21T06:13:29.316Z,25.40
2022-11-21T06:16:01.345Z,25.96
2022-11-21T06:18:38.005Z,24.42
2022-11-21T06:21:15.721Z,24.48
2022-11-21T06:23:47.419Z,24.62
2022-11-21T06:26:17.198Z,23.48
2022-11-21T06:28:50.346Z,23.85
2022-11-21T06:31:23.710Z,23.74
2022-11-21T06:33:58.970Z,23.38
2022-11-21T06:36:30.240Z,22.83
2022-11-21T06:38:57.882Z,22.41
2022-11-21T06:41:30.390Z,22.43
2022-11-21T06:44:03.523Z,21.76
2022-11-21T06:46:33.725Z,23.54
2022-11-21T06:49:01.345Z,23.98
2022-11-21T06:51:29.116Z,21.33
2022-11-21T06:53:58.562Z,22.74
2022-11-21T06:56:28.330Z,21.22
2022-11-21T06:58:56.278Z,20.44
2022-11-21T07:01:24.033Z,21.43
2022-11-21T07:03:53.573Z,21.92
2022-11-21T07:06:24.209Z,21.42
2022-11-21T07:09:25.538Z,22.97
2022-11-21T07:11:46.418Z,22.94
2022-11-21T07:14:14.131Z,22.40
2022-11-21T07:16:41.805Z,22.88
2022-11-21T07:19:12.622Z,23.94
2022-11-21T07:21:41.895Z,23.67
2022-11-21T07:24:09.314Z,22.58
2022-11-21T07:26:36.733Z,23.13
2022-11-21T07:29:04.261Z,21.61
2022-11-21T07:31:31.958Z,21.92
2022-11-21T07:33:59.493Z,21.60
2022-11-21T07:36:26.950Z,21.42
2022-11-21T07:38:54.421Z,22.50
2022-11-21T07:41:21.842Z,22.92
2022-11-21T07:43:49.257Z,24.03
2022-11-21T07:46:16.655Z,23.69
2022-11-21T07:48:44.191Z,24.56
2022-11-21T07:51:11.721Z,25.24
2022-11-21T07:53:39.151Z,25.03
2022-11-21T07:56:09.691Z,25.75
2022-11-21T07:58:37.452Z,26.19
2022-11-21T08:01:08.176Z,26.10
2022-11-21T08:03:35.688Z,27.10
2022-11-21T08:06:05.147Z,26.89
2022-11-21T08:08:32.767Z,27.25
2022-11-21T08:11:06.566Z,36.97
2022-11-21T08:13:36.876Z,32.02
2022-11-21T08:16:07.248Z,35.53
2022-11-21T08:18:34.976Z,33.38
2022-11-21T08:21:04.110Z,32.91
2022-11-21T08:23:32.455Z,36.53
2022-11-21T08:26:00.002Z,32.84
2022-11-21T08:28:27.657Z,31.34
2022-11-21T08:31:00.820Z,34.94
2022-11-21T08:33:31.457Z,33.13
2022-11-21T08:35:59.466Z,32.66
2022-11-21T08:38:29.544Z,33.32
2022-11-21T08:41:19.572Z,33.12
2022-11-21T08:43:59.376Z,32.95
2022-11-21T08:46:28.465Z,33.88
2022-11-21T08:48:56.277Z,33.23
2022-11-21T08:51:30.571Z,34.92
2022-11-21T08:53:58.857Z,33.42
2022-11-21T08:56:26.605Z,34.94
2022-11-21T08:58:53.958Z,33.97
2022-11-21T09:01:21.432Z,34.88
2022-11-21T09:03:48.872Z,34.84
2022-11-21T09:06:16.210Z,35.48
2022-11-21T09:08:43.783Z,34.17
2022-11-21T09:11:11.171Z,35.11
2022-11-21T09:13:38.497Z,36.80
2022-11-21T09:16:24.072Z,36.50
2022-11-21T09:18:54.480Z,36.03
2022-11-21T09:21:24.618Z,35.71
2022-11-21T09:23:51.932Z,35.09
2022-11-21T09:26:19.341Z,35.71
2022-11-21T09:28:47.076Z,35.77
2022-11-21T09:31:14.664Z,35.99
2022-11-21T09:33:42.000Z,35.69
2022-11-21T09:36:10.161Z,36.13
2022-11-21T09:38:37.536Z,36.39
2022-11-21T09:41:49.877Z,39.90
2022-11-21T09:44:50.216Z,37.05
2022-11-21T09:47:33.171Z,36.82
2022-11-21T09:50:13.782Z,37.13
2022-11-21T09:52:49.776Z,36.77
2022-11-21T09:55:29.426Z,38.82
2022-11-21T09:58:00.630Z,37.96
2022-11-21T10:00:28.230Z,36.96
2022-11-21T10:02:56.923Z,38.21
2022-11-21T10:05:40.129Z,37.14
2022-11-21T10:08:31.076Z,37.53
2022-11-21T10:11:20.187Z,38.17
2022-11-21T10:14:43.579Z,37.92
2022-11-21T10:17:36.698Z,37.83
2022-11-21T10:20:22.755Z,38.58
2022-11-21T10:23:12.995Z,37.67
2022-11-21T10:25:45.500Z,37.79
2022-11-21T10:28:29.654Z,40.18
2022-11-21T10:30:59.990Z,40.02
2022-11-21T10:33:32.455Z,39.32
2022-11-21T10:36:06.180Z,40.06
2022-11-21T10:38:40.790Z,40.34
2022-11-21T10:41:14.452Z,39.15
2022-11-21T10:44:08.741Z,40.15
2022-11-21T10:46:36.239Z,39.38
2022-11-21T10:49:04.907Z,39.42
2022-11-21T10:52:00.699Z,40.60
2022-11-21T10:54:33.780Z,39.50
2022-11-21T10:57:21.629Z,39.66
2022-11-21T11:00:14.453Z,40.44
2022-11-21T11:03:00.432Z,39.98
2022-11-21T11:05:38.164Z,40.80
2022-11-21T11:08:14.431Z,41.20
2022-11-21T11:10:46.738Z,40.64
2022-11-21T11:13:46.989Z,40.40
2022-11-21T11:16:22.129Z,40.80
2022-11-21T11:19:17.107Z,40.53
2022-11-21T11:21:45.984Z,39.87
2022-11-21T11:24:13.493Z,40.38
2022-11-21T11:26:59.445Z,42.23
2022-11-21T11:29:31.075Z,42.00
2022-11-21T11:32:22.148Z,42.16
2022-11-21T11:35:04.883Z,41.83
2022-11-21T11:38:03.744Z,42.41
2022-11-21T11:40:37.255Z,41.58
2022-11-21T11:43:47.157Z,42.64
2022-11-21T11:47:04.288Z,43.10
2022-11-21T11:49:58.616Z,42.39
2022-11-21T11:52:32.289Z,41.82
2022-11-21T11:55:05.591Z,41.77
2022-11-21T11:57:36.786Z,43.05
2022-11-21T12:00:19.069Z,47.47
2022-11-21T12:03:11.258Z,46.14
2022-11-21T12:05:52.745Z,45.81
2022-11-21T12:08:42.391Z,47.06
2022-11-21T12:12:14.190Z,45.76
2022-11-21T12:15:09.517Z,43.82
2022-11-21T12:18:25.543Z,44.51
2022-11-21T12:21:03.450Z,43.50
2022-11-21T12:23:48.125Z,44.36
2022-11-21T12:26:34.227Z,43.42
2022-11-21T12:29:32.297Z,46.55
2022-11-21T12:32:18.204Z,45.88
2022-11-21T12:35:08.882Z,54.13
2022-11-21T12:37:49.007Z,51.42
2022-11-21T12:40:43.793Z,51.00
2022-11-21T12:43:38.860Z,50.23
2022-11-21T12:46:15.081Z,49.92
2022-11-21T12:49:29.169Z,50.47
2022-11-21T12:52:52.780Z,48.50
2022-11-21T12:55:38.082Z,48.18
2022-11-21T12:58:21.533Z,46.24
2022-11-21T13:01:27.399Z,45.70
2022-11-21T13:04:02.530Z,45.23
2022-11-21T13:06:38.465Z,44.20
2022-11-21T13:09:12.648Z,43.81
2022-11-21T13:12:08.018Z,44.69
2022-11-21T13:14:44.914Z,43.94
2022-11-21T13:17:24.961Z,43.47
2022-11-21T13:20:04.362Z,43.65
2022-11-21T13:22:41.708Z,46.71
2022-11-21T13:25:30.682Z,48.79
2022-11-21T13:28:32.833Z,46.45
2022-11-21T13:31:02.925Z,45.27
2022-11-21T13:33:36.291Z,45.48
2022-11-21T13:36:10.603Z,47.59
2022-11-21T13:38:58.249Z,46.49
2022-11-21T13:42:20.566Z,45.76
2022-11-21T13:44:49.683Z,46.34
2022-11-21T13:47:26.452Z,50.78
2022-11-21T13:50:07.009Z,49.72
2022-11-21T13:52:50.462Z,51.20
2022-11-21T13:55:55.617Z,49.18
2022-11-21T13:58:29.325Z,47.76
2022-11-21T14:01:17.749Z,47.58
2022-11-21T14:04:27.051Z,46.71
2022-11-21T14:06:54.613Z,45.29
2022-11-21T14:09:38.844Z,44.93
2022-11-21T14:12:19.975Z,50.63
2022-11-21T14:15:08.389Z,52.14
2022-11-21T14:17:45.249Z,53.58
2022-11-21T14:20:24.934Z,56.15
2022-11-21T14:23:00.396Z,55.60
2022-11-21T14:25:59.904Z,57.73
2022-11-21T14:28:33.225Z,57.93
2022-11-21T14:31:02.306Z,56.85
2022-11-21T14:33:32.313Z,55.66
2022-11-21T14:36:03.961Z,54.06
2022-11-21T14:38:36.994Z,51.53
2022-11-21T14:41:26.217Z,51.69
2022-11-21T14:43:59.804Z,49.72
2022-11-21T14:46:28.840Z,50.01
2022-11-21T14:49:00.102Z,50.19
2022-11-21T14:51:30.727Z,50.72
2022-11-21T14:53:58.420Z,52.53
2022-11-21T14:56:34.559Z,52.02
2022-11-21T14:59:03.896Z,50.43
2022-11-21T15:01:33.717Z,49.61
2022-11-21T15:04:04.539Z,48.34
2022-11-21T15:06:40.939Z,47.27
2022-11-21T15:12:08.239Z,46.99
2022-11-21T15:14:49.426Z,46.21
2022-11-21T15:17:21.020Z,48.26
2022-11-21T15:20:11.385Z,47.92
2022-11-21T15:22:41.873Z,48.75
2022-11-21T15:25:17.555Z,48.86
2022-11-21T15:28:05.291Z,47.96
2022-11-21T15:30:34.464Z,46.21
2022-11-21T15:33:14.576Z,44.68
2022-11-21T15:35:44.090Z,44.62
2022-11-21T15:38:32.432Z,44.43
2022-11-21T15:41:01.814Z,45.05
2022-11-21T15:43:48.227Z,44.71
2022-11-21T15:46:27.936Z,44.29
2022-11-21T15:48:57.650Z,43.85
2022-11-21T15:54:27.706Z,42.56
2022-11-21T15:56:55.513Z,42.29
2022-11-21T15:59:23.066Z,43.33
2022-11-21T16:01:50.538Z,42.69
2022-11-21T16:04:22.479Z,42.95
2022-11-21T16:06:52.874Z,42.40
2022-11-21T16:09:20.457Z,42.53
2022-11-21T16:11:47.956Z,42.60
2022-11-21T16:14:18.599Z,42.51
2022-11-21T16:16:47.844Z,42.19
2022-11-21T16:19:15.627Z,42.16
2022-11-21T16:21:43.219Z,41.60
2022-11-21T16:24:10.896Z,41.45
2022-11-21T16:26:38.340Z,42.10
2022-11-21T16:29:06.529Z,42.83
2022-11-21T16:31:34.403Z,41.45
2022-11-21T16:34:02.063Z,41.24
2022-11-21T16:36:30.985Z,41.84
2022-11-21T16:39:05.139Z,42.81
2022-11-21T16:41:35.581Z,41.96
2022-11-21T16:44:03.368Z,42.00
2022-11-21T16:46:30.951Z,41.69
2022-11-21T16:49:00.717Z,42.18
2022-11-21T16:51:29.513Z,41.81
2022-11-21T16:54:01.756Z,41.46
2022-11-21T16:56:35.530Z,41.58
2022-11-21T16:59:03.225Z,41.68
2022-11-21T17:01:30.946Z,43.08
2022-11-21T17:03:58.686Z,42.75
2022-11-21T17:06:30.606Z,43.61
2022-11-21T17:09:10.743Z,43.52
2022-11-21T17:11:41.401Z,44.98
2022-11-21T17:14:12.013Z,44.83
2022-11-21T17:16:44.057Z,45.27
2022-11-21T17:19:16.542Z,46.26
2022-11-21T17:21:47.157Z,45.72
2022-11-21T17:24:15.245Z,46.59
2022-11-21T17:26:43.222Z,45.33
2022-11-21T17:29:11.150Z,44.23
2022-11-21T17:31:39.568Z,43.72
2022-11-21T17:34:07.527Z,43.40
2022-11-21T17:36:37.412Z,43.79
2022-11-21T17:39:07.781Z,43.50
2022-11-21T17:41:35.253Z,43.62
2022-11-21T17:44:02.763Z,43.24
2022-11-21T17:46:30.320Z,44.09
2022-11-21T17:49:02.189Z,44.62
2022-11-21T17:51:43.105Z,44.63
2022-11-21T17:54:14.483Z,44.49
2022-11-21T17:56:51.411Z,44.19
2022-11-21T17:59:29.480Z,44.75
2022-11-21T18:01:57.488Z,44.96
2022-11-21T18:04:25.094Z,44.79
2022-11-21T18:06:52.574Z,44.65
2022-11-21T18:09:20.059Z,44.92
2022-11-21T18:11:47.899Z,45.01
2022-11-21T18:14:15.431Z,44.96
2022-11-21T18:16:49.388Z,48.63
2022-11-21T18:19:22.394Z,49.11
2022-11-21T18:21:50.377Z,48.34
2022-11-21T18:24:19.963Z,46.17
2022-11-21T18:26:47.494Z,45.41
2022-11-21T18:32:02.626Z,44.48
2022-11-21T18:34:30.091Z,48.65
2022-11-21T18:36:57.538Z,46.82
2022-11-21T18:39:27.061Z,46.98
2022-11-21T18:41:54.796Z,44.99
2022-11-21T18:44:22.917Z,45.63
2022-11-21T18:46:50.802Z,46.19
2022-11-21T18:49:19.265Z,46.79
2022-11-21T18:51:48.128Z,46.81
2022-11-21T18:54:18.439Z,46.23
2022-11-21T18:56:47.241Z,45.05
2022-11-21T18:59:15.128Z,49.26
2022-11-21T19:01:43.545Z,48.79
2022-11-21T19:04:11.399Z,46.83
2022-11-21T19:06:38.845Z,47.00
2022-11-21T19:09:06.685Z,45.16
2022-11-21T19:11:34.298Z,45.33
2022-11-21T19:14:01.808Z,45.67
2022-11-21T19:16:34.573Z,45.16
2022-11-21T19:19:33.489Z,44.99
2022-11-21T19:21:53.065Z,44.58
2022-11-21T19:24:20.520Z,44.91
2022-11-21T19:26:50.655Z,45.07
2022-11-21T19:29:18.870Z,45.22
2022-11-21T19:31:46.374Z,44.90
2022-11-21T19:34:16.060Z,44.74
2022-11-21T19:36:44.477Z,44.63
2022-11-21T19:39:12.032Z,45.28
2022-11-21T19:41:40.987Z,45.93
2022-11-21T19:44:08.464Z,44.73
2022-11-21T19:46:37.789Z,45.80
2022-11-21T19:49:06.857Z,45.47
2022-11-21T19:51:40.555Z,45.64
2022-11-21T19:54:10.052Z,45.44
2022-11-21T19:56:37.584Z,45.34
2022-11-21T19:59:05.608Z,46.17
2022-11-21T20:01:35.054Z,46.91
2022-11-21T20:04:04.676Z,46.77
2022-11-21T20:06:37.615Z,47.66
2022-11-21T20:09:18.074Z,48.38
2022-11-21T20:11:47.613Z,47.83
2022-11-21T20:14:21.450Z,46.53
2022-11-21T20:16:51.555Z,48.46
2022-11-21T20:19:21.179Z,48.69
2022-11-21T20:21:49.002Z,48.55
2022-11-21T20:24:17.004Z,48.35
2022-11-21T20:26:45.153Z,48.36
2022-11-21T20:29:14.028Z,47.30
2022-11-21T20:31:42.230Z,47.57
2022-11-21T20:34:13.048Z,46.95
2022-11-21T20:36:41.202Z,46.65
2022-11-21T20:39:19.160Z,46.37
2022-11-21T20:41:47.580Z,46.72
2022-11-21T20:47:06.081Z,47.50
2022-11-21T20:49:34.216Z,47.76
2022-11-21T20:54:48.984Z,46.35
2022-11-21T20:57:16.462Z,46.84
2022-11-21T20:59:44.161Z,46.88
2022-11-21T21:02:15.081Z,46.75
2022-11-21T21:04:42.806Z,47.01
2022-11-21T21:07:10.678Z,47.12
2022-11-21T21:09:38.260Z,46.50
2022-11-21T21:12:06.013Z,47.50
2022-11-21T21:14:33.454Z,47.81
2022-11-21T21:17:00.828Z,47.36
2022-11-21T21:19:28.637Z,47.58
2022-11-21T21:21:56.478Z,46.53
2022-11-21T21:24:23.963Z,46.67
2022-11-21T21:26:51.332Z,46.53
2022-11-21T21:29:20.391Z,46.70
2022-11-21T21:31:51.031Z,47.41
2022-11-21T21:34:23.252Z,47.02
2022-11-21T21:36:51.548Z,46.43
2022-11-21T21:39:19.343Z,46.81
2022-11-21T21:41:47.672Z,46.65
2022-11-21T21:44:16.279Z,46.98
2022-11-21T21:46:44.628Z,47.79
2022-11-21T21:49:19.027Z,47.32
2022-11-21T21:51:55.581Z,47.05
2022-11-21T21:54:31.258Z,47.08
2022-11-21T21:57:01.232Z,46.17
2022-11-21T21:59:28.706Z,46.28
2022-11-21T22:01:56.479Z,45.77
2022-11-21T22:04:24.220Z,46.91
2022-11-21T22:06:51.683Z,47.17
2022-11-21T22:09:22.060Z,47.34
2022-11-21T22:11:51.866Z,47.23
2022-11-21T22:14:19.426Z,47.38
2022-11-21T22:16:46.912Z,47.12
2022-11-21T22:19:16.648Z,47.10
2022-11-21T22:21:44.640Z,46.59
2022-11-21T22:24:25.526Z,46.90
2022-11-21T22:26:54.210Z,46.21
2022-11-21T22:29:21.694Z,46.25
2022-11-21T22:31:49.019Z,47.09
2022-11-21T22:34:19.436Z,46.66
2022-11-21T22:36:47.092Z,46.42
2022-11-21T22:39:15.646Z,47.32
2022-11-21T22:41:43.059Z,46.69
2022-11-21T22:44:10.596Z,46.60
2022-11-21T22:46:38.227Z,46.84
2022-11-21T22:49:05.577Z,46.57
2022-11-21T22:51:35.447Z,47.18
2022-11-21T22:54:02.951Z,47.32
2022-11-21T22:56:30.435Z,46.80
2022-11-21T22:59:03.873Z,46.76
2022-11-21T23:01:34.342Z,46.26
2022-11-21T23:04:04.165Z,46.85
2022-11-21T23:06:42.396Z,46.53
2022-11-21T23:10:14.895Z,46.96
2022-11-21T23:12:50.941Z,45.41
2022-11-21T23:15:18.517Z,45.76
2022-11-21T23:18:27.197Z,46.40
2022-11-21T23:21:04.388Z,45.90
2022-11-21T23:24:16.899Z,46.00
2022-11-21T23:26:44.569Z,46.42
2022-11-21T23:29:14.870Z,46.26
2022-11-21T23:32:24.435Z,46.05
2022-11-21T23:34:52.070Z,45.47
2022-11-21T23:37:22.728Z,45.63
2022-11-21T23:39:50.301Z,45.20
2022-11-21T23:42:17.838Z,45.15
2022-11-21T23:44:50.766Z,46.11
2022-11-21T23:47:18.208Z,45.71
2022-11-21T23:50:22.831Z,45.85
2022-11-21T23:53:09.193Z,46.94
2022-11-21T23:55:36.651Z,45.79
2022-11-21T23:58:22.768Z,45.97
